Time;durP1;ratioP1;P1;durP2;ratioP2;P2;SDS_P1;SDS_P2;PMS_P1;PMS_P2;Temp;Humidity;BMP_temperature;BMP_pressure;BME280_temperature;BME280_humidity;BME280_pressure;Samples;Min_cycle;Max_cycle;Signal;HPM_P1;HPM_P2
2023/09/08 00:00:56;;;;;;;6.90;4.82;;;;;;;17.18;100.00;97555.53;5011733;28;20455;-73
2023/09/08 00:03:22;;;;;;;9.00;5.50;;;;;;;17.17;100.00;97556.63;5027209;28;20473;-73
2023/09/08 00:05:49;;;;;;;7.65;4.85;;;;;;;17.17;100.00;97562.78;5010583;28;20412;-73
2023/09/08 00:08:15;;;;;;;7.07;5.00;;;;;;;17.12;100.00;97557.50;5011221;28;20444;-73
2023/09/08 00:10:41;;;;;;;7.10;5.20;;;;;;;17.14;100.00;97557.22;5011080;28;20898;-73
2023/09/08 00:13:08;;;;;;;7.97;4.93;;;;;;;17.11;100.00;97553.25;5010831;28;20913;-73
2023/09/08 00:15:36;;;;;;;7.50;4.72;;;;;;;17.10;100.00;97546.28;5010857;28;20401;-72
2023/09/08 00:18:02;;;;;;;8.65;5.20;;;;;;;17.08;100.00;97556.47;5011073;28;20428;-73
2023/09/08 00:20:29;;;;;;;8.27;4.97;;;;;;;17.06;100.00;97547.97;5010922;28;20740;-72
2023/09/08 00:22:55;;;;;;;8.13;4.72;;;;;;;17.05;100.00;97549.03;5016963;28;20741;-72
2023/09/08 00:25:21;;;;;;;6.72;4.53;;;;;;;17.01;100.00;97548.00;5015038;28;20460;-72
2023/09/08 00:27:47;;;;;;;8.05;4.85;;;;;;;16.97;100.00;97547.81;5010882;28;20404;-73
2023/09/08 00:30:14;;;;;;;7.43;4.70;;;;;;;16.95;100.00;97554.53;5010780;28;20420;-73
2023/09/08 00:32:42;;;;;;;6.55;4.60;;;;;;;16.94;100.00;97558.28;5010801;28;20400;-73
2023/09/08 00:35:10;;;;;;;7.30;5.20;;;;;;;16.90;100.00;97550.03;5010549;28;20490;-73
2023/09/08 00:37:37;;;;;;;9.77;5.25;;;;;;;16.88;100.00;97544.19;5010010;28;20898;-73
2023/09/08 00:40:03;;;;;;;6.30;4.63;;;;;;;16.86;100.00;97546.34;5010853;28;20405;-72
2023/09/08 00:42:29;;;;;;;8.35;5.03;;;;;;;16.86;100.00;97545.53;5010464;28;20409;-72
2023/09/08 00:44:56;;;;;;;6.03;4.88;;;;;;;16.84;100.00;97545.06;5010245;28;20425;-73
2023/09/08 00:47:22;;;;;;;6.80;5.00;;;;;;;16.82;100.00;97552.56;5010915;28;20757;-73
2023/09/08 00:49:51;;;;;;;6.57;4.73;;;;;;;16.83;100.00;97546.13;5010459;28;20474;-72
2023/09/08 00:52:17;;;;;;;8.63;5.47;;;;;;;16.81;100.00;97543.75;5010431;28;20483;-73
2023/09/08 00:54:43;;;;;;;6.97;4.95;;;;;;;16.80;100.00;97550.16;5010279;28;20878;-73
2023/09/08 00:57:10;;;;;;;11.70;5.28;;;;;;;16.79;100.00;97551.25;5010541;28;20483;-72
2023/09/08 00:59:37;;;;;;;8.50;5.95;;;;;;;16.79;100.00;97551.25;5010317;28;20822;-73
2023/09/08 01:02:03;;;;;;;7.15;5.20;;;;;;;16.76;100.00;97549.16;5015275;28;20740;-73
2023/09/08 01:04:30;;;;;;;8.00;5.47;;;;;;;16.77;100.00;97545.38;5021385;28;20439;-73
2023/09/08 01:06:59;;;;;;;6.53;5.18;;;;;;;16.72;100.00;97541.97;5010245;28;20405;-73
2023/09/08 01:09:26;;;;;;;5.75;4.65;;;;;;;16.72;100.00;97548.13;5010783;28;21081;-73
2023/09/08 01:11:52;;;;;;;7.50;4.88;;;;;;;16.70;100.00;97541.47;5010641;28;20444;-72
2023/09/08 01:14:19;;;;;;;7.40;5.30;;;;;;;16.67;100.00;97542.06;5010361;28;20409;-72
2023/09/08 01:16:46;;;;;;;10.47;5.80;;;;;;;16.65;100.00;97550.34;5010614;28;20405;-72
2023/09/08 01:19:14;;;;;;;9.23;4.93;;;;;;;16.61;100.00;97542.09;5010980;28;20758;-73
2023/09/08 01:21:58;;;;;;;13.57;6.25;;;;;;;16.55;100.00;97545.09;5010601;28;20496;-72
2023/09/08 01:24:54;;;;;;;7.18;5.13;;;;;;;16.55;100.00;97550.44;5018471;28;20460;-73
2023/09/08 01:27:25;;;;;;;8.20;5.50;;;;;;;16.50;100.00;97545.94;5025778;28;20407;-72
2023/09/08 01:29:52;;;;;;;7.60;5.30;;;;;;;16.47;100.00;97546.50;5030114;28;20850;-72
2023/09/08 01:32:19;;;;;;;5.63;4.50;;;;;;;16.46;100.00;97544.16;5030167;28;20880;-73
2023/09/08 01:34:46;;;;;;;6.35;4.95;;;;;;;16.45;100.00;97551.38;5029903;28;20407;-72
2023/09/08 01:37:12;;;;;;;11.70;5.53;;;;;;;16.43;100.00;97548.16;5030199;28;20488;-72
2023/09/08 01:39:38;;;;;;;7.20;5.22;;;;;;;16.41;100.00;97547.66;5012450;28;20487;-73
2023/09/08 01:42:04;;;;;;;7.53;5.00;;;;;;;16.41;100.00;97546.84;5010500;28;20413;-72
2023/09/08 01:44:32;;;;;;;8.27;5.70;;;;;;;16.38;100.00;97548.25;5010040;28;20840;-72
2023/09/08 01:46:58;;;;;;;8.40;5.15;;;;;;;16.40;100.00;97542.59;5010350;28;20420;-72
2023/09/08 01:49:24;;;;;;;11.13;6.03;;;;;;;16.35;100.00;97537.31;5012240;28;20416;-73
2023/09/08 01:51:51;;;;;;;12.45;6.28;;;;;;;16.26;100.00;97539.81;5013963;28;20515;-72
2023/09/08 01:54:17;;;;;;;10.55;6.28;;;;;;;16.18;100.00;97543.88;5013734;28;20829;-72
2023/09/08 01:56:43;;;;;;;8.93;6.05;;;;;;;16.15;100.00;97539.13;5030079;28;20403;-72
2023/09/08 01:59:10;;;;;;;10.50;5.97;;;;;;;16.16;100.00;97538.03;5013733;28;20443;-73
2023/09/08 02:01:37;;;;;;;9.75;5.65;;;;;;;16.15;100.00;97539.13;5013732;28;20775;-73
2023/09/08 02:04:04;;;;;;;8.27;5.55;;;;;;;16.17;100.00;97536.16;5013279;28;20428;-73
2023/09/08 02:06:30;;;;;;;9.17;5.80;;;;;;;16.17;100.00;97541.50;5013526;28;20459;-72
2023/09/08 02:08:56;;;;;;;8.82;5.63;;;;;;;16.17;100.00;97538.81;5013488;28;20409;-72
2023/09/08 02:11:22;;;;;;;8.95;6.00;;;;;;;16.17;100.00;97541.50;5029042;28;20399;-73
2023/09/08 02:13:49;;;;;;;7.85;5.65;;;;;;;16.16;100.00;97543.38;5013607;28;20416;-72
2023/09/08 02:16:15;;;;;;;9.05;6.35;;;;;;;16.15;100.00;97539.13;5021215;28;20414;-73
2023/09/08 02:18:44;;;;;;;9.68;6.07;;;;;;;16.13;100.00;97541.28;5014893;28;20882;-73
2023/09/08 02:21:10;;;;;;;10.63;6.20;;;;;;;16.11;100.00;97540.75;5013252;28;20408;-73
2023/09/08 02:23:37;;;;;;;8.27;5.50;;;;;;;16.10;100.00;97531.16;5020984;28;20857;-73
2023/09/08 02:26:03;;;;;;;10.23;5.45;;;;;;;16.07;100.00;97537.06;5013282;28;20900;-72
2023/09/08 02:28:30;;;;;;;9.27;6.20;;;;;;;16.05;100.00;97531.22;5013322;28;20413;-72
2023/09/08 02:30:56;;;;;;;6.33;5.33;;;;;;;16.05;100.00;97538.41;5017121;28;20399;-73
2023/09/08 02:33:22;;;;;;;8.27;5.18;;;;;;;16.03;100.00;97535.22;5017191;28;20477;-72
2023/09/08 02:35:50;;;;;;;6.75;5.15;;;;;;;16.01;100.00;97534.75;5013151;28;20921;-72
2023/09/08 02:38:16;;;;;;;6.53;5.10;;;;;;;16.00;100.00;97536.59;5013001;28;20405;-72
2023/09/08 02:40:43;;;;;;;7.43;4.93;;;;;;;16.00;100.00;97528.59;5012908;28;20413;-72
2023/09/08 02:43:10;;;;;;;8.30;6.05;;;;;;;16.02;100.00;97531.75;5012338;28;20424;-72
2023/09/08 02:45:36;;;;;;;10.93;6.40;;;;;;;16.02;100.00;97534.44;5022021;28;20903;-73
2023/09/08 02:48:03;;;;;;;12.88;6.25;;;;;;;16.03;100.00;97529.88;5019720;28;20436;-72
2023/09/08 02:50:29;;;;;;;10.60;6.43;;;;;;;16.03;100.00;97528.00;5012645;28;20401;-72
2023/09/08 02:52:56;;;;;;;9.48;6.38;;;;;;;16.05;100.00;97525.88;5024602;28;20799;-73
2023/09/08 02:55:23;;;;;;;7.77;5.67;;;;;;;16.07;100.00;97526.38;5016574;28;20412;-73
2023/09/08 02:57:49;;;;;;;7.68;6.00;;;;;;;16.11;100.00;97523.94;5012641;28;20423;-73
2023/09/08 03:00:15;;;;;;;10.57;6.07;;;;;;;16.13;100.00;97524.47;5026700;28;20403;-73
2023/09/08 03:02:41;;;;;;;9.30;5.85;;;;;;;16.14;100.00;97534.88;5014167;28;20396;-73
2023/09/08 03:05:08;;;;;;;9.23;6.20;;;;;;;16.16;100.00;97530.00;5012477;28;20423;-73
2023/09/08 03:07:37;;;;;;;9.00;6.43;;;;;;;16.15;100.00;97531.13;5020635;28;20412;-72
2023/09/08 03:10:06;;;;;;;9.20;6.10;;;;;;;16.13;100.00;97522.59;5012304;28;20436;-72
2023/09/08 03:12:32;;;;;;;8.32;5.68;;;;;;;16.11;100.00;97529.28;5012362;28;20409;-72
2023/09/08 03:14:58;;;;;;;7.68;5.90;;;;;;;16.09;100.00;97532.22;5011975;28;20401;-72
2023/09/08 03:17:24;;;;;;;8.65;5.70;;;;;;;16.07;100.00;97531.72;5011126;28;21542;-72
2023/09/08 03:19:51;;;;;;;8.50;5.90;;;;;;;16.05;100.00;97533.88;5012208;28;20431;-72
2023/09/08 03:22:17;;;;;;;9.63;5.85;;;;;;;16.02;100.00;97528.28;5012108;28;20412;-73
2023/09/08 03:24:43;;;;;;;8.82;5.80;;;;;;;15.99;100.00;97528.88;5011769;28;20824;-72
2023/09/08 03:27:10;;;;;;;9.13;6.50;;;;;;;15.94;100.00;97529.69;5012081;28;20503;-72
2023/09/08 03:29:37;;;;;;;9.10;5.47;;;;;;;15.91;100.00;97532.16;5012083;28;20407;-72
2023/09/08 03:32:04;;;;;;;9.70;6.33;;;;;;;15.88;100.00;97522.81;5012008;28;20413;-72
2023/09/08 03:34:30;;;;;;;8.90;6.65;;;;;;;15.85;100.00;97523.41;5027783;28;20399;-72
2023/09/08 03:36:56;;;;;;;8.07;5.80;;;;;;;15.82;100.00;97526.63;5011819;28;20755;-73
2023/09/08 03:39:22;;;;;;;8.93;5.85;;;;;;;15.79;100.00;97524.50;5011685;28;20401;-73
2023/09/08 03:41:48;;;;;;;10.18;6.40;;;;;;;15.75;100.00;97529.63;5011922;28;20898;-73
2023/09/08 03:44:16;;;;;;;9.15;6.20;;;;;;;15.75;100.00;97528.81;5011389;28;20421;-73
2023/09/08 03:46:42;;;;;;;7.10;5.50;;;;;;;15.71;100.00;97525.13;5011666;28;20409;-72
2023/09/08 03:49:08;;;;;;;8.32;6.07;;;;;;;15.69;100.00;97527.28;5011593;28;20441;-72
2023/09/08 03:51:34;;;;;;;9.27;6.03;;;;;;;15.67;100.00;97519.53;5011506;28;20444;-72
2023/09/08 03:54:02;;;;;;;8.43;5.80;;;;;;;15.64;100.00;97521.97;5011543;28;20400;-72
2023/09/08 03:56:29;;;;;;;8.63;5.70;;;;;;;15.63;100.00;97521.19;5011605;28;20435;-72
2023/09/08 03:58:55;;;;;;;6.80;5.10;;;;;;;15.62;100.00;97529.47;5023109;28;20868;-72
2023/09/08 04:01:22;;;;;;;7.65;5.22;;;;;;;15.57;100.00;97527.63;5015761;28;20413;-72
2023/09/08 04:03:48;;;;;;;5.40;4.57;;;;;;;15.55;100.00;97535.13;5010755;28;20431;-72
2023/09/08 04:06:15;;;;;;;6.28;5.03;;;;;;;15.52;100.00;97540.97;5011109;28;20471;-72
2023/09/08 04:08:41;;;;;;;13.43;5.70;;;;;;;15.49;100.00;97544.19;5011170;28;20732;-72
2023/09/08 04:11:07;;;;;;;7.68;5.40;;;;;;;15.44;100.00;97533.56;5011085;28;20437;-72
2023/09/08 04:13:33;;;;;;;7.30;5.55;;;;;;;15.40;100.00;97537.88;5026960;28;20861;-71
2023/09/08 04:15:59;;;;;;;8.05;5.10;;;;;;;15.35;100.00;97540.56;5010997;28;20408;-73
2023/09/08 04:18:27;;;;;;;9.52;5.40;;;;;;;15.33;100.00;97534.75;5011051;28;20499;-73
2023/09/08 04:20:53;;;;;;;8.85;5.82;;;;;;;15.28;100.00;97535.56;5010911;28;20762;-73
2023/09/08 04:23:19;;;;;;;8.13;5.35;;;;;;;15.31;100.00;97534.22;5009135;28;20420;-73
2023/09/08 04:25:46;;;;;;;10.10;5.90;;;;;;;15.31;100.00;97536.88;5010882;28;20632;-73
2023/09/08 04:28:12;;;;;;;8.98;5.80;;;;;;;15.30;100.00;97536.06;5010906;28;20440;-73
2023/09/08 04:30:38;;;;;;;8.57;5.53;;;;;;;15.30;100.00;97529.94;5015276;28;20407;-73
2023/09/08 04:33:05;;;;;;;6.85;5.20;;;;;;;15.29;100.00;97539.00;5029515;28;20752;-72
2023/09/08 04:35:32;;;;;;;5.90;4.53;;;;;;;15.27;100.00;97541.94;5029982;28;20414;-72
2023/09/08 04:37:59;;;;;;;8.23;5.53;;;;;;;15.21;100.00;97537.72;5029572;28;20879;-72
2023/09/08 04:40:25;;;;;;;7.35;5.55;;;;;;;15.18;100.00;97551.63;5030037;28;20409;-72
2023/09/08 04:42:51;;;;;;;6.93;5.05;;;;;;;15.15;100.00;97549.50;5029771;28;20899;-72
2023/09/08 04:45:17;;;;;;;10.38;6.32;;;;;;;15.15;100.00;97548.72;5026666;28;20494;-72
2023/09/08 04:47:43;;;;;;;7.47;5.23;;;;;;;15.11;100.00;97548.44;5021700;28;20447;-71
2023/09/08 04:50:10;;;;;;;6.72;5.35;;;;;;;15.09;100.00;97554.09;5028302;28;20842;-72
2023/09/08 04:52:37;;;;;;;7.15;5.45;;;;;;;15.09;100.00;97543.41;5027051;28;20899;-72
2023/09/08 04:55:04;;;;;;;8.77;5.47;;;;;;;15.09;100.00;97553.28;5028508;28;20408;-72
2023/09/08 04:57:31;;;;;;;7.40;5.50;;;;;;;15.06;100.00;97549.28;5029542;28;20947;-71
2023/09/08 04:59:57;;;;;;;6.70;5.05;;;;;;;15.05;100.00;97547.69;5029844;28;20405;-72
2023/09/08 05:02:23;;;;;;;6.97;5.13;;;;;;;15.04;100.00;97555.97;5029857;28;20490;-72
2023/09/08 05:04:49;;;;;;;7.80;5.47;;;;;;;15.03;100.00;97549.06;5028237;28;20923;-72
2023/09/08 05:07:15;;;;;;;7.75;5.05;;;;;;;15.02;100.00;97552.78;5029495;28;20415;-74
2023/09/08 05:09:43;;;;;;;6.35;4.78;;;;;;;15.01;100.00;97549.31;5029946;28;20404;-73
2023/09/08 05:12:09;;;;;;;6.82;5.35;;;;;;;15.00;100.00;97547.72;5024564;28;20770;-72
2023/09/08 05:14:35;;;;;;;6.82;5.05;;;;;;;15.01;100.00;97549.31;5010380;28;20404;-72
2023/09/08 05:17:02;;;;;;;7.97;5.72;;;;;;;14.99;100.00;97548.00;5014419;28;20808;-72
2023/09/08 05:19:28;;;;;;;10.00;5.70;;;;;;;14.98;100.00;97547.19;5022040;28;20758;-72
2023/09/08 05:21:55;;;;;;;6.90;5.20;;;;;;;14.98;100.00;97543.72;5010739;28;20904;-72
2023/09/08 05:24:21;;;;;;;7.03;5.28;;;;;;;14.98;100.00;97554.41;5012685;28;20419;-71
2023/09/08 05:26:49;;;;;;;8.00;5.55;;;;;;;14.97;100.00;97548.25;5017069;28;20436;-72
2023/09/08 05:29:15;;;;;;;7.32;5.18;;;;;;;14.95;100.00;97547.75;5026628;28;20444;-72
2023/09/08 05:31:41;;;;;;;6.78;5.10;;;;;;;14.96;100.00;97552.00;5014368;28;20416;-72
2023/09/08 05:34:08;;;;;;;7.60;4.70;;;;;;;14.98;100.00;97557.06;5014205;28;20405;-72
2023/09/08 05:36:36;;;;;;;7.47;4.68;;;;;;;14.99;100.00;97564.00;5014414;28;20396;-72
2023/09/08 05:39:03;;;;;;;6.78;5.13;;;;;;;15.01;100.00;97554.66;5014490;28;20443;-72
2023/09/08 05:41:29;;;;;;;12.98;5.55;;;;;;;15.04;100.00;97566.63;5014285;28;20413;-72
2023/09/08 05:43:57;;;;;;;7.72;5.50;;;;;;;15.07;100.00;97569.56;5013819;28;20424;-72
2023/09/08 05:46:23;;;;;;;8.55;5.60;;;;;;;15.12;100.00;97568.72;5014219;28;20413;-71
2023/09/08 05:48:49;;;;;;;8.35;5.78;;;;;;;15.15;100.00;97568.19;5012794;28;20824;-72
2023/09/08 05:51:15;;;;;;;6.65;5.18;;;;;;;15.19;100.00;97571.88;5021028;28;20431;-72
2023/09/08 05:53:42;;;;;;;7.28;5.07;;;;;;;15.22;100.00;97570.53;5032476;28;20403;-71
2023/09/08 05:56:08;;;;;;;7.23;5.10;;;;;;;15.24;100.00;97563.88;5033683;28;20579;-71
2023/09/08 05:58:34;;;;;;;5.80;4.60;;;;;;;15.30;100.00;97568.09;5033008;28;20788;-72
2023/09/08 06:01:02;;;;;;;6.15;4.55;;;;;;;15.34;100.00;97563.78;5033622;28;20403;-72
2023/09/08 06:03:29;;;;;;;6.72;5.07;;;;;;;15.41;100.00;97564.25;5032762;28;20418;-72
2023/09/08 06:05:55;;;;;;;8.33;5.53;;;;;;;15.47;100.00;97557.84;5033279;28;20403;-72
2023/09/08 06:08:22;;;;;;;7.55;4.95;;;;;;;15.55;100.00;97566.34;5032954;28;20486;-72
2023/09/08 06:10:48;;;;;;;8.53;5.53;;;;;;;15.62;100.00;97569.50;5030473;28;20437;-72
2023/09/08 06:13:14;;;;;;;9.20;5.53;;;;;;;15.70;100.00;97566.25;5013895;28;20411;-72
2023/09/08 06:15:40;;;;;;;6.50;5.20;;;;;;;15.77;100.00;97564.84;5030304;28;20413;-72
2023/09/08 06:18:10;;;;;;;8.13;5.25;;;;;;;15.83;100.00;97565.59;5014042;28;20413;-72
2023/09/08 06:20:36;;;;;;;7.50;5.30;;;;;;;15.90;100.00;97560.72;5021006;28;20403;-72
2023/09/08 06:23:03;;;;;;;9.30;5.85;;;;;;;15.97;100.00;97566.53;5033121;28;20419;-71
2023/09/08 06:25:29;;;;;;;9.18;6.57;;;;;;;16.05;100.00;97557.13;5032940;28;20421;-72
2023/09/08 06:27:55;;;;;;;7.18;5.57;;;;;;;16.15;100.00;97559.69;5033395;28;20409;-72
2023/09/08 06:30:22;;;;;;;12.97;7.07;;;;;;;16.24;100.00;97558.78;5033383;28;20522;-72
2023/09/08 06:32:48;;;;;;;10.88;6.15;;;;;;;16.37;100.00;97559.19;5024007;28;20428;-73
2023/09/08 06:35:15;;;;;;;10.60;5.70;;;;;;;16.48;100.00;97560.66;5031948;28;20468;-73
2023/09/08 06:37:42;;;;;;;9.70;6.30;;;;;;;16.59;100.00;97564.84;5032908;28;20453;-71
2023/09/08 06:40:08;;;;;;;8.75;6.45;;;;;;;16.69;100.00;97566.63;5033513;28;20421;-72
2023/09/08 06:42:34;;;;;;;8.05;5.95;;;;;;;16.78;100.00;97567.56;5033274;28;20477;-71
2023/09/08 06:45:01;;;;;;;8.43;5.90;;;;;;;16.85;100.00;97566.13;5028601;28;20421;-71
2023/09/08 06:47:27;;;;;;;9.88;6.15;;;;;;;16.93;100.00;97568.16;5020785;28;20891;-71
2023/09/08 06:49:53;;;;;;;9.52;5.68;;;;;;;17.01;100.00;97572.09;5033122;28;20439;-71
2023/09/08 06:52:21;;;;;;;7.45;5.97;;;;;;;17.10;100.00;97567.69;5033046;28;20756;-71
2023/09/08 06:54:47;;;;;;;8.68;5.72;;;;;;;17.19;100.00;97571.31;5032026;28;20407;-72
2023/09/08 06:57:13;;;;;;;9.55;5.93;;;;;;;17.29;100.00;97565.03;5028181;28;20401;-71
2023/09/08 06:59:39;;;;;;;9.35;6.13;;;;;;;17.36;100.00;97563.59;5027767;28;20453;-71
2023/09/08 07:02:06;;;;;;;11.65;6.05;;;;;;;17.47;100.00;97571.44;5031836;28;20952;-72
2023/09/08 07:04:33;;;;;;;7.22;5.32;;;;;;;17.56;100.00;97564.34;5024424;28;20439;-70
2023/09/08 07:07:06;;;;;;;8.50;5.90;;;;;;;17.64;100.00;97567.19;5032766;28;20415;-71
2023/09/08 07:09:35;;;;;;;7.97;5.35;;;;;;;17.75;100.00;97576.66;5032830;28;20422;-71
2023/09/08 07:12:02;;;;;;;7.18;5.25;;;;;;;17.85;100.00;97577.56;5033259;28;20403;-71
2023/09/08 07:14:28;;;;;;;8.07;5.60;;;;;;;17.94;100.00;97573.16;5032060;28;20406;-71
2023/09/08 07:16:54;;;;;;;7.45;5.35;;;;;;;18.03;100.00;97569.50;5032640;28;20400;-71
2023/09/08 07:19:20;;;;;;;8.85;5.63;;;;;;;18.12;100.00;97575.75;5032547;28;20896;-71
2023/09/08 07:21:46;;;;;;;7.57;4.90;;;;;;;18.23;100.00;97570.22;5032516;28;20407;-72
2023/09/08 07:24:12;;;;;;;8.15;5.00;;;;;;;18.31;100.00;97572.22;5032153;28;20427;-72
2023/09/08 07:26:40;;;;;;;8.02;5.25;;;;;;;18.41;100.00;97572.84;5032566;28;20399;-72
2023/09/08 07:29:06;;;;;;;7.38;5.05;;;;;;;18.53;100.00;97566.97;5026880;28;20815;-71
2023/09/08 07:31:33;;;;;;;9.38;5.20;;;;;;;18.62;100.00;97556.41;5012387;28;20404;-71
2023/09/08 07:33:59;;;;;;;8.40;4.93;;;;;;;18.76;100.00;97559.88;5012439;28;20393;-71
2023/09/08 07:36:25;;;;;;;6.65;4.78;;;;;;;18.88;100.00;97558.25;5012678;28;20419;-71
2023/09/08 07:38:51;;;;;;;6.60;4.53;;;;;;;19.03;100.00;97565.19;5012663;28;20503;-71
2023/09/08 07:41:17;;;;;;;7.32;5.00;;;;;;;19.16;100.00;97569.75;5012911;28;20411;-71
2023/09/08 07:43:45;;;;;;;7.35;4.93;;;;;;;19.28;100.00;97571.91;5021192;28;20859;-71
2023/09/08 07:46:11;;;;;;;7.45;4.60;;;;;;;19.39;100.00;97567.91;5031151;28;20807;-70
2023/09/08 07:48:38;;;;;;;7.70;4.88;;;;;;;19.51;100.00;97568.19;5019514;28;20411;-71
2023/09/08 07:51:04;;;;;;;9.37;5.40;;;;;;;19.62;100.00;97569.50;5017052;28;20464;-71
2023/09/08 07:53:30;;;;;;;6.18;4.97;;;;;;;19.74;100.00;97562.81;5021629;28;20917;-71
2023/09/08 07:55:56;;;;;;;6.85;4.80;;;;;;;19.82;100.00;97567.47;5018948;28;20407;-71
2023/09/08 07:58:22;;;;;;;6.32;4.60;;;;;;;19.92;100.00;97565.28;5023681;28;20994;-71
2023/09/08 08:00:50;;;;;;;9.40;4.47;;;;;;;20.02;100.00;97567.75;5012871;28;20447;-71
2023/09/08 08:03:16;;;;;;;9.15;4.88;;;;;;;20.12;100.00;97561.31;5011611;28;20416;-71
2023/09/08 08:05:42;;;;;;;9.15;5.25;;;;;;;20.22;100.00;97566.44;5011771;28;20400;-71
2023/09/08 08:08:09;;;;;;;7.13;4.90;;;;;;;20.31;100.00;97563.78;5011164;28;20467;-70
2023/09/08 08:10:35;;;;;;;7.45;4.80;;;;;;;20.39;100.00;97571.13;5011566;28;20932;-71
2023/09/08 08:13:02;;;;;;;5.80;4.63;;;;;;;20.47;100.00;97565.00;5011763;28;20415;-71
2023/09/08 08:15:36;;;;;;;6.28;4.60;;;;;;;20.55;100.00;97558.84;5011570;28;20397;-71
2023/09/08 08:18:04;;;;;;;9.27;4.75;;;;;;;20.64;100.00;97572.34;5011511;28;20404;-72
2023/09/08 08:20:34;;;;;;;8.48;4.63;;;;;;;20.72;100.00;97568.88;5011335;28;20874;-72
2023/09/08 08:23:01;;;;;;;6.32;4.60;;;;;;;20.80;100.00;97570.81;5010840;28;20404;-70
2023/09/08 08:25:27;;;;;;;7.85;4.60;;;;;;;20.89;100.00;97568.94;5010933;28;20421;-71
2023/09/08 08:27:54;;;;;;;6.28;4.63;;;;;;;21.00;100.00;97570.22;5022739;28;20399;-70
2023/09/08 08:30:21;;;;;;;6.70;5.00;;;;;;;21.13;100.00;97571.97;5030980;28;20911;-71
2023/09/08 08:32:47;;;;;;;7.20;4.80;;;;;;;21.26;100.00;97569.50;5030750;28;20407;-71
2023/09/08 08:35:15;;;;;;;5.97;4.60;;;;;;;21.41;100.00;97567.16;5030469;28;20884;-71
2023/09/08 08:37:42;;;;;;;6.57;4.72;;;;;;;21.54;100.00;97570.78;5020921;28;20408;-71
2023/09/08 08:40:13;;;;;;;6.00;4.35;;;;;;;21.68;100.00;97565.22;5010999;28;20409;-71
2023/09/08 08:42:41;;;;;;;6.75;4.88;;;;;;;21.80;100.00;97566.16;5011088;28;20843;-71
2023/09/08 08:45:08;;;;;;;5.45;4.50;;;;;;;21.91;100.00;97567.41;5010557;28;20413;-70
2023/09/08 08:47:34;;;;;;;5.95;4.28;;;;;;;22.01;100.00;97560.94;5010698;28;20400;-71
2023/09/08 08:50:03;;;;;;;6.38;4.30;;;;;;;22.11;100.00;97570.56;5010900;28;20404;-71
2023/09/08 08:52:31;;;;;;;5.93;4.55;;;;;;;22.17;100.00;97559.31;5011054;28;20420;-71
2023/09/08 08:54:57;;;;;;;6.55;4.30;;;;;;;22.24;100.00;97565.00;5010603;28;20409;-71
2023/09/08 08:57:27;;;;;;;5.35;3.90;;;;;;;22.31;100.00;97553.72;5010704;28;20413;-71
2023/09/08 08:59:53;;;;;;;6.40;4.60;;;;;;;22.35;100.00;97563.53;5010016;28;20408;-71
2023/09/08 09:02:21;;;;;;;5.78;4.20;;;;;;;22.43;100.00;97558.41;5010870;28;20500;-72
2023/09/08 09:04:48;;;;;;;6.05;4.50;;;;;;;22.49;100.00;97560.63;5010000;28;20810;-72
2023/09/08 09:07:15;;;;;;;7.63;4.75;;;;;;;22.57;100.00;97556.28;5010696;28;20412;-72
2023/09/08 09:09:43;;;;;;;5.22;4.10;;;;;;;22.66;100.00;97559.75;5010896;28;20882;-71
2023/09/08 09:12:09;;;;;;;5.57;4.13;;;;;;;22.75;100.00;97555.13;5015546;28;20877;-71
2023/09/08 09:14:36;;;;;;;5.50;4.10;;;;;;;22.86;100.00;97555.53;5024509;28;20404;-71
2023/09/08 09:17:04;;;;;;;5.85;4.28;;;;;;;22.98;100.00;97552.94;5025091;28;20397;-70
2023/09/08 09:19:31;;;;;;;5.78;3.97;;;;;;;23.10;100.00;97555.72;5023094;28;20415;-73
2023/09/08 09:21:58;;;;;;;6.35;4.15;;;;;;;;;;5041266;22;20426;-73
2023/09/08 09:24:32;;;;;;;5.43;4.28;;;;;;;23.33;100.00;97559.69;5028416;28;20429;-74
2023/09/08 09:27:00;;;;;;;8.57;4.38;;;;;;;23.48;100.00;97552.94;5025111;28;20457;-73
2023/09/08 09:29:28;;;;;;;8.63;4.88;;;;;;;23.71;100.00;97558.78;5025176;28;20442;-73
2023/09/08 09:31:55;;;;;;;7.18;4.63;;;;;;;23.95;100.00;97552.66;5025391;28;20426;-74
2023/09/08 09:34:22;;;;;;;5.67;4.43;;;;;;;24.21;100.00;97558.59;5021827;28;20416;-73
2023/09/08 09:36:49;;;;;;;5.90;4.40;;;;;;;24.49;100.00;97556.09;5028401;28;20474;-73
2023/09/08 09:39:18;;;;;;;7.63;5.07;;;;;;;24.73;100.00;97560.72;5030189;28;20403;-73
2023/09/08 09:41:45;;;;;;;6.75;4.75;;;;;;;25.01;100.00;97558.91;5028721;28;20449;-73
2023/09/08 09:44:13;;;;;;;6.00;4.30;;;;;;;25.28;100.00;97563.59;5008531;28;20506;-73
2023/09/08 09:46:44;;;;;;;6.30;4.15;;;;;;;25.55;100.00;97558.59;5029819;28;20730;-72
2023/09/08 09:49:12;;;;;;;7.78;4.05;;;;;;;25.75;100.00;97554.91;5028797;28;20493;-74
2023/09/08 09:51:42;;;;;;;6.22;4.38;;;;;;;25.89;100.00;97551.78;5025318;28;20482;-73
2023/09/08 09:54:09;;;;;;;5.85;4.32;;;;;;;25.98;100.00;97552.44;5029599;28;20904;-73
2023/09/08 09:56:38;;;;;;;9.80;5.05;;;;;;;26.00;100.00;97548.25;5027030;28;20416;-73
2023/09/08 09:59:05;;;;;;;8.70;4.63;;;;;;;26.08;100.00;97552.72;5031407;28;20395;-73
2023/09/08 10:01:33;;;;;;;8.05;4.80;;;;;;;26.15;100.00;97552.91;5028133;28;20498;-74
2023/09/08 10:04:00;;;;;;;5.95;4.55;;;;;;;26.27;100.00;97552.06;5029193;28;20415;-74
2023/09/08 10:06:27;;;;;;;5.00;4.10;;;;;;;26.36;100.00;97549.97;5029941;28;21090;-73
2023/09/08 10:08:55;;;;;;;7.35;4.55;;;;;;;26.38;100.00;97549.63;5028392;28;20490;-73
2023/09/08 10:11:26;;;;;;;6.30;4.45;;;;;;;26.37;100.00;97548.84;5034248;28;20393;-73
2023/09/08 10:13:57;;;;;;;4.70;3.90;;;;;;;26.32;100.00;97545.56;5037316;28;20395;-72
2023/09/08 10:16:30;;;;;;;5.97;5.10;;;;;;;26.17;100.00;97549.81;5031798;28;20895;-74
2023/09/08 10:19:00;;;;;;;6.95;4.47;;;;;;;26.15;100.00;97544.78;5036615;28;20468;-74
2023/09/08 10:21:29;;;;;;;6.55;4.20;;;;;;;26.15;100.00;97539.34;5031673;28;20506;-72
2023/09/08 10:24:00;;;;;;;6.17;4.43;;;;;;;26.16;100.00;97534.72;5032468;28;20411;-73
2023/09/08 10:26:30;;;;;;;6.90;5.30;;;;;;;26.14;100.00;97532.34;5030067;28;20410;-74
2023/09/08 10:28:57;;;;;;;4.65;4.00;;;;;;;26.13;100.00;97530.75;5032660;28;20493;-73
2023/09/08 10:31:26;;;;;;;5.55;4.13;;;;;;;26.19;100.00;97536.69;5032541;28;20403;-73
2023/09/08 10:33:53;;;;;;;5.47;4.47;;;;;;;26.13;100.00;97532.69;5031390;28;20395;-73
2023/09/08 10:36:21;;;;;;;5.93;4.47;;;;;;;26.13;100.00;97535.38;5033225;28;20407;-73
2023/09/08 10:38:49;;;;;;;5.57;4.20;;;;;;;26.17;100.00;97531.63;5032581;28;20494;-73
2023/09/08 10:41:29;;;;;;;5.70;4.15;;;;;;;26.22;100.00;97533.31;5032936;28;20403;-73
2023/09/08 10:44:00;;;;;;;6.68;4.13;;;;;;;26.28;100.00;97531.94;5031901;28;20768;-72
2023/09/08 10:46:27;;;;;;;5.68;4.55;;;;;;;26.34;100.00;97527.81;5029307;28;20411;-73
2023/09/08 10:48:54;;;;;;;5.97;3.90;;;;;;;26.42;100.00;97535.00;5035279;28;20897;-72
2023/09/08 10:51:24;;;;;;;5.25;4.15;;;;;;;26.47;100.00;97528.50;5032841;28;20415;-72
2023/09/08 10:53:50;;;;;;;5.07;4.03;;;;;;;26.52;100.00;97523.63;5013792;28;20430;-72
2023/09/08 10:56:18;;;;;;;9.23;4.22;;;;;;;26.59;100.00;97520.28;5026057;28;20427;-72
2023/09/08 10:58:50;;;;;;;4.78;3.83;;;;;;;26.70;100.00;97529.44;5034456;28;20447;-73
2023/09/08 11:01:17;;;;;;;4.78;4.15;;;;;;;26.75;100.00;97520.25;5040366;28;20464;-73
2023/09/08 11:03:46;;;;;;;6.13;4.50;;;;;;;26.84;100.00;97521.63;5035097;28;20411;-73
2023/09/08 11:06:15;;;;;;;5.53;4.43;;;;;;;26.90;100.00;97528.41;5039403;28;20395;-72
2023/09/08 11:08:44;;;;;;;5.68;4.25;;;;;;;26.97;100.00;97527.78;5036748;28;20397;-73
2023/09/08 11:11:12;;;;;;;7.05;4.30;;;;;;;27.02;100.00;97529.44;5038219;28;20475;-73
2023/09/08 11:13:39;;;;;;;5.05;3.85;;;;;;;27.06;100.00;97519.44;5030929;28;20477;-72
2023/09/08 11:16:06;;;;;;;5.33;3.80;;;;;;;27.13;100.00;97514.94;5037541;28;20426;-72
2023/09/08 11:18:34;;;;;;;5.97;4.38;;;;;;;27.23;100.00;97516.28;5032429;28;20434;-73
2023/09/08 11:21:02;;;;;;;5.65;4.20;;;;;;;27.28;100.00;97519.53;5034382;28;20970;-73
2023/09/08 11:23:28;;;;;;;4.90;4.15;;;;;;;27.36;100.00;97523.97;5032153;28;20868;-73